This is the latest recevied weather packets stored in our database for station/object VK5GR-12. If no packets are shown the sender has not sent any weather packets the latest 10 day(s).
| Time | Temp. | Humidity | Pressure | Rain* | Wind** | Luminosity | Snow |
|---|---|---|---|---|---|---|---|
| 1777686573 | 21.11° C | 58% | 1009.2 hPa | 0 mm | - | 48 W/m² | - |
| 1777685668 | 21.11° C | 57% | 1009.6 hPa | 0 mm | - | 114 W/m² | - |
| 1777684765 | 21.11° C | 59% | 1009.4 hPa | 0 mm | - | 272 W/m² | - |
| 1777683861 | 20.56° C | 60% | 1009.8 hPa | 0 mm | - | 51 W/m² | - |
| 1777682960 | 20.56° C | 60% | 1009.8 hPa | 0 mm | - | 92 W/m² | - |
| 1777682055 | 20° C | 62% | 1009.6 hPa | 0 mm | - | 136 W/m² | - |
| 1777681152 | 18.33° C | 73% | 1009.7 hPa | 0 mm | - | 61 W/m² | - |
| 1777680251 | 17.78° C | 77% | 1009.9 hPa | 0 mm | - | 22 W/m² | - |
| 1777679349 | 17.22° C | 81% | 1010.1 hPa | 0 mm | - | 18 W/m² | - |
| 1777678447 | 18.33° C | 73% | 1010.1 hPa | 4.32 mm | - | 13 W/m² | - |
| 1777677543 | 20° C | 64% | 1010.7 hPa | 0 mm | - | 15 W/m² | - |
| 1777676638 | 21.67° C | 52% | 1010 hPa | 0 mm | - | 15 W/m² | - |
| 1777675734 | 23.33° C | 43% | 1009.8 hPa | 0 mm | - | 22 W/m² | - |
| 1777674830 | 23.89° C | 41% | 1009.7 hPa | 0 mm | - | 21 W/m² | - |
| 1777673927 | 23.33° C | 41% | 1009.7 hPa | 0 mm | - | 24 W/m² | - |
| 1777673024 | 23.33° C | 42% | 1009.4 hPa | 0 mm | - | 16 W/m² | - |
| 1777672124 | 23.33° C | 42% | 1008.5 hPa | 0 mm | - | 2 W/m² | - |
| 1777671224 | 23.33° C | 42% | 1008.5 hPa | 0 mm | - | 2 W/m² | - |
| 1777670320 | 23.33° C | 42% | 1008.4 hPa | 0 mm | - | 1 W/m² | - |
| 1777669417 | 23.33° C | 41% | 1008.6 hPa | 0 mm | - | 0 W/m² | - |
| 1777668513 | 23.89° C | 40% | 1008.6 hPa | 0 mm | - | 0 W/m² | - |
| 1777667609 | 23.89° C | 40% | 1008.7 hPa | 0 mm | - | 0 W/m² | - |
| 1777666705 | 23.89° C | 40% | 1008.8 hPa | 0 mm | - | 0 W/m² | - |
| 1777665801 | 23.33° C | 40% | 1009.1 hPa | 0 mm | - | 0 W/m² | - |
| 1777664897 | 23.33° C | 40% | 1009.2 hPa | 0 mm | - | 0 W/m² | - |
* Rain latest hour (hover to see other rain measurements)
** Current wind speed in m/s (hover to see current wind gust speed)